57.6°F
Current conditions from King Hill
Updated every 5 minutes
 
  Sunday April 20, 2014

Station Historical Data
Daily Summary for June 14, 2012 Units:  English    Metric   Both
« Previous Day
Next Day »
Daily Weekly Monthly Yearly Custom
  High: Low: Average:
Temperature: 74.8 °F 46.0 °F 60.3 °F
Dew Point: 56.1 °F 42.2 °F 47.8 °F
Humidity: 96% 38% 68%
Wind Speed: 5.0mph 0.0mph 1.8mph
Wind Gust: 16.0mph - -
Wind- - ENE
Pressure: 30.28 in 30.12 in -
Precipitation: 0.00 in    
Historical Graphs
 
 
Tabular Data for June 14, 2012
Time Temperature Dew Point Pressure Wind Wind Speed Wind Gust Humidity Daily Rainfall
00:04 53.2 °F 48.8 °F 30.12 in Calm   1.0 mph 85% 0.00 in
00:09 53.1 °F 48.4 °F 30.12 in Calm   1.0 mph 84% 0.00 in
00:14 52.8 °F 48.1 °F 30.12 in Calm     84% 0.00 in
00:19 52.4 °F 48.0 °F 30.12 in Calm     85% 0.00 in
00:24 52.2 °F 48.1 °F 30.13 in Calm     86% 0.00 in
00:29 52.0 °F 47.9 °F 30.13 in Calm     86% 0.00 in
00:34 51.6 °F 47.6 °F 30.13 in Calm     86% 0.00 in
00:39 51.4 °F 47.7 °F 30.13 in Calm     87% 0.00 in
00:44 51.4 °F 48.0 °F 30.13 in Calm     88% 0.00 in
00:49 51.1 °F 47.7 °F 30.14 in Calm     88% 0.00 in
00:54 50.7 °F 47.3 °F 30.14 in Calm     88% 0.00 in
00:59 50.3 °F 46.9 °F 30.14 in Calm     88% 0.00 in
01:04 49.9 °F 46.5 °F 30.14 in Calm     88% 0.00 in
01:09 49.6 °F 46.2 °F 30.14 in Calm     88% 0.00 in
01:14 49.3 °F 45.9 °F 30.14 in Calm     88% 0.00 in
01:19 49.1 °F 46.0 °F 30.14 in Calm     89% 0.00 in
01:24 48.9 °F 45.8 °F 30.14 in Calm     89% 0.00 in
01:29 48.7 °F 45.6 °F 30.14 in Calm     89% 0.00 in
01:34 48.5 °F 45.4 °F 30.14 in Calm     89% 0.00 in
01:39 48.4 °F 45.6 °F 30.14 in Calm     90% 0.00 in
01:44 48.2 °F 45.4 °F 30.14 in Calm     90% 0.00 in
01:49 48.2 °F 45.4 °F 30.15 in Calm     90% 0.00 in
01:54 48.1 °F 45.3 °F 30.15 in Calm     90% 0.00 in
01:59 48.0 °F 45.2 °F 30.15 in Calm     90% 0.00 in
02:04 48.5 °F 46.0 °F 30.15 in Calm     91% 0.00 in
02:09 48.8 °F 46.6 °F 30.15 in Calm     92% 0.00 in
02:14 48.8 °F 46.6 °F 30.15 in Calm     92% 0.00 in
02:19 48.9 °F 46.7 °F 30.16 in Calm     92% 0.00 in
02:24 49.1 °F 46.9 °F 30.16 in Calm     92% 0.00 in
02:29 48.9 °F 46.7 °F 30.16 in Calm     92% 0.00 in
02:34 48.6 °F 46.4 °F 30.16 in Calm     92% 0.00 in
02:39 48.2 °F 46.0 °F 30.16 in Calm     92% 0.00 in
02:44 47.9 °F 45.7 °F 30.16 in Calm     92% 0.00 in
02:49 47.8 °F 45.6 °F 30.16 in Calm     92% 0.00 in
02:54 47.6 °F 45.4 °F 30.16 in Calm     92% 0.00 in
02:59 47.6 °F 45.4 °F 30.16 in Calm     92% 0.00 in
03:04 47.3 °F 45.1 °F 30.16 in Calm     92% 0.00 in
03:09 47.2 °F 45.3 °F 30.16 in Calm     93% 0.00 in
03:14 47.1 °F 44.9 °F 30.16 in Calm     92% 0.00 in
03:19 47.1 °F 45.2 °F 30.17 in Calm     93% 0.00 in
03:24 47.0 °F 45.1 °F 30.17 in Calm     93% 0.00 in
03:29 46.9 °F 45.0 °F 30.17 in Calm     93% 0.00 in
03:34 46.9 °F 45.0 °F 30.17 in Calm     93% 0.00 in
03:39 46.9 °F 45.0 °F 30.17 in Calm     93% 0.00 in
03:44 46.7 °F 44.8 °F 30.17 in Calm     93% 0.00 in
03:49 46.5 °F 44.6 °F 30.17 in Calm     93% 0.00 in
03:54 46.5 °F 44.6 °F 30.17 in Calm     93% 0.00 in
03:59 46.4 °F 44.8 °F 30.17 in Calm     94% 0.00 in
04:04 46.4 °F 44.8 °F 30.17 in Calm     94% 0.00 in
04:09 46.4 °F 44.8 °F 30.17 in Calm     94% 0.00 in
04:14 46.4 °F 44.8 °F 30.17 in Calm     94% 0.00 in
04:19 46.4 °F 44.8 °F 30.18 in Calm     94% 0.00 in
04:24 46.2 °F 44.6 °F 30.18 in Calm     94% 0.00 in
04:29 46.3 °F 44.7 °F 30.18 in Calm     94% 0.00 in
04:34 46.2 °F 44.6 °F 30.18 in Calm     94% 0.00 in
04:39 46.0 °F 44.4 °F 30.18 in Calm     94% 0.00 in
04:44 46.2 °F 44.6 °F 30.18 in Calm     94% 0.00 in
04:49 46.6 °F 45.0 °F 30.18 in Calm     94% 0.00 in
04:54 46.6 °F 45.0 °F 30.19 in Calm     94% 0.00 in
04:59 46.5 °F 44.9 °F 30.19 in Calm     94% 0.00 in
05:04 46.4 °F 45.0 °F 30.19 in Calm     95% 0.00 in
05:09 46.3 °F 44.9 °F 30.19 in Calm     95% 0.00 in
05:14 46.2 °F 44.8 °F 30.19 in Calm     95% 0.00 in
05:19 46.1 °F 44.7 °F 30.20 in Calm     95% 0.00 in
05:24 46.0 °F 44.6 °F 30.20 in Calm     95% 0.00 in
05:29 46.0 °F 44.6 °F 30.20 in Calm     95% 0.00 in
05:34 46.1 °F 44.7 °F 30.21 in Calm     95% 0.00 in
05:39 46.0 °F 44.6 °F 30.21 in Calm     95% 0.00 in
05:44 46.0 °F 44.6 °F 30.21 in Calm     95% 0.00 in
05:49 46.0 °F 44.6 °F 30.21 in Calm     95% 0.00 in
05:54 46.0 °F 44.6 °F 30.22 in Calm     95% 0.00 in
05:59 46.0 °F 44.6 °F 30.22 in Calm     95% 0.00 in
06:04 46.1 °F 44.7 °F 30.22 in Calm     95% 0.00 in
06:09 46.5 °F 45.1 °F 30.22 in Calm     95% 0.00 in
06:14 46.7 °F 45.3 °F 30.23 in Calm     95% 0.00 in
06:19 46.9 °F 45.5 °F 30.23 in Calm     95% 0.00 in
06:24 47.5 °F 46.1 °F 30.24 in Calm     95% 0.00 in
06:29 47.7 °F 46.3 °F 30.24 in Calm     95% 0.00 in
06:34 48.0 °F 46.6 °F 30.24 in Calm     95% 0.00 in
06:39 48.3 °F 46.9 °F 30.24 in Calm     95% 0.00 in
06:44 48.8 °F 47.4 °F 30.24 in Calm     95% 0.00 in
06:49 49.2 °F 48.1 °F 30.24 in Calm     96% 0.00 in
06:54 49.4 °F 48.3 °F 30.25 in Calm     96% 0.00 in
06:59 49.6 °F 48.5 °F 30.25 in Calm     96% 0.00 in
07:04 49.9 °F 48.8 °F 30.25 in Calm     96% 0.00 in
07:09 50.3 °F 49.2 °F 30.25 in Calm     96% 0.00 in
07:14 50.8 °F 49.7 °F 30.25 in Calm     96% 0.00 in
07:19 51.3 °F 50.2 °F 30.26 in Calm     96% 0.00 in
07:24 51.8 °F 50.7 °F 30.26 in Calm     96% 0.00 in
07:29 52.1 °F 51.0 °F 30.26 in Calm     96% 0.00 in
07:34 52.3 °F 51.2 °F 30.26 in Calm     96% 0.00 in
07:39 52.4 °F 51.3 °F 30.26 in Calm   1.0 mph 96% 0.00 in
07:44 52.6 °F 51.5 °F 30.26 in Calm   1.0 mph 96% 0.00 in
07:49 52.7 °F 51.6 °F 30.26 in Calm   1.0 mph 96% 0.00 in
07:54 52.8 °F 51.7 °F 30.26 in East 1.0 mph 3.0 mph 96% 0.00 in
07:59 53.4 °F 52.3 °F 30.26 in Calm   3.0 mph 96% 0.00 in
08:04 54.5 °F 53.4 °F 30.27 in Calm   1.0 mph 96% 0.00 in
08:09 55.8 °F 54.7 °F 30.27 in Calm     96% 0.00 in
08:14 56.7 °F 55.6 °F 30.27 in Calm     96% 0.00 in
08:19 57.2 °F 56.1 °F 30.27 in Calm   1.0 mph 96% 0.00 in
08:24 57.6 °F 55.3 °F 30.27 in NE 1.0 mph 3.0 mph 92% 0.00 in
08:29 58.3 °F 54.8 °F 30.28 in Calm   3.0 mph 88% 0.00 in
08:34 59.4 °F 54.9 °F 30.27 in Calm   3.0 mph 85% 0.00 in
08:39 60.5 °F 53.3 °F 30.27 in NE 1.0 mph 5.0 mph 77% 0.00 in
08:44 61.2 °F 52.1 °F 30.27 in ENE 2.0 mph 6.0 mph 72% 0.00 in
08:49 61.5 °F 53.1 °F 30.27 in Calm   6.0 mph 74% 0.00 in
08:54 62.2 °F 53.4 °F 30.27 in Calm   6.0 mph 73% 0.00 in
08:59 62.4 °F 52.1 °F 30.27 in ENE 2.0 mph 6.0 mph 69% 0.00 in
09:04 62.7 °F 50.8 °F 30.27 in NNE 2.0 mph 8.0 mph 65% 0.00 in
09:09 63.0 °F 51.9 °F 30.28 in NNE 3.0 mph 8.0 mph 67% 0.00 in
09:14 63.3 °F 50.5 °F 30.28 in NE 1.0 mph 8.0 mph 63% 0.00 in
09:19 63.5 °F 51.1 °F 30.28 in Calm   9.0 mph 64% 0.00 in
09:24 63.9 °F 50.6 °F 30.28 in Calm   9.0 mph 62% 0.00 in
09:29 64.4 °F 51.1 °F 30.28 in NNE 1.0 mph 5.0 mph 62% 0.00 in
09:34 65.0 °F 51.2 °F 30.28 in ENE 1.0 mph 9.0 mph 61% 0.00 in
09:39 65.4 °F 51.2 °F 30.28 in SE 1.0 mph 9.0 mph 60% 0.00 in
09:44 65.4 °F 48.3 °F 30.28 in NNE 1.0 mph 8.0 mph 54% 0.00 in
09:49 65.9 °F 50.7 °F 30.28 in Calm   8.0 mph 58% 0.00 in
09:54 65.8 °F 46.1 °F 30.28 in Calm   9.0 mph 49% 0.00 in
09:59 66.2 °F 49.6 °F 30.28 in NNE 2.0 mph 9.0 mph 55% 0.00 in
10:04 66.5 °F 47.8 °F 30.28 in SE 2.0 mph 8.0 mph 51% 0.00 in
10:09 66.5 °F 46.8 °F 30.28 in NE 1.0 mph 12.0 mph 49% 0.00 in
10:14 66.7 °F 47.0 °F 30.28 in NNE 2.0 mph 12.0 mph 49% 0.00 in
10:19 66.7 °F 47.5 °F 30.28 in NE 3.0 mph 8.0 mph 50% 0.00 in
10:24 67.0 °F 47.2 °F 30.28 in Calm   8.0 mph 49% 0.00 in
10:29 67.2 °F 42.7 °F 30.27 in East 4.0 mph 10.0 mph 41% 0.00 in
10:34 67.3 °F 42.2 °F 30.27 in NNE 3.0 mph 10.0 mph 40% 0.00 in
10:39 67.3 °F 43.4 °F 30.27 in NNE 1.0 mph 10.0 mph 42% 0.00 in
10:44 67.6 °F 46.1 °F 30.27 in NNE 1.0 mph 10.0 mph 46% 0.00 in
10:49 68.0 °F 47.0 °F 30.27 in Calm   8.0 mph 47% 0.00 in
10:54 68.6 °F 45.8 °F 30.27 in North 2.0 mph 10.0 mph 44% 0.00 in
10:59 68.4 °F 44.4 °F 30.27 in NNE 2.0 mph 10.0 mph 42% 0.00 in
11:04 68.4 °F 45.1 °F 30.27 in NNE 1.0 mph 10.0 mph 43% 0.00 in
11:09 68.9 °F 46.1 °F 30.27 in NNE 3.0 mph 8.0 mph 44% 0.00 in
11:14 68.7 °F 42.8 °F 30.27 in ENE 4.0 mph 10.0 mph 39% 0.00 in
11:19 68.5 °F 44.5 °F 30.27 in NNE 2.0 mph 10.0 mph 42% 0.00 in
11:24 68.6 °F 45.2 °F 30.27 in North 1.0 mph 9.0 mph 43% 0.00 in
11:29 69.1 °F 43.8 °F 30.27 in North 2.0 mph 8.0 mph 40% 0.00 in
11:34 69.5 °F 46.0 °F 30.26 in North 3.0 mph 10.0 mph 43% 0.00 in
11:39 69.4 °F 44.7 °F 30.26 in North 1.0 mph 10.0 mph 41% 0.00 in
11:44 69.5 °F 44.8 °F 30.27 in North 1.0 mph 8.0 mph 41% 0.00 in
11:49 69.5 °F 44.1 °F 30.27 in NE 1.0 mph 12.0 mph 40% 0.00 in
11:54 70.1 °F 48.4 °F 30.27 in Calm   12.0 mph 46% 0.00 in
11:59 70.3 °F 46.1 °F 30.27 in Calm   16.0 mph 42% 0.00 in
12:04 70.4 °F 45.6 °F 30.27 in NNE 3.0 mph 16.0 mph 41% 0.00 in
12:09 70.1 °F 47.2 °F 30.26 in Calm   8.0 mph 44% 0.00 in
12:14 70.4 °F 45.6 °F 30.26 in NE 3.0 mph 12.0 mph 41% 0.00 in
12:19 70.4 °F 47.5 °F 30.26 in Calm   12.0 mph 44% 0.00 in
12:24 70.7 °F 45.9 °F 30.26 in NNE 1.0 mph 8.0 mph 41% 0.00 in
12:29 70.7 °F 45.9 °F 30.26 in NW 1.0 mph 8.0 mph 41% 0.00 in
12:34 70.8 °F 49.0 °F 30.26 in Calm   6.0 mph 46% 0.00 in
12:39 70.5 °F 43.7 °F 30.26 in NNE 3.0 mph 14.0 mph 38% 0.00 in
12:44 70.4 °F 44.3 °F 30.26 in NNE 3.0 mph 14.0 mph 39% 0.00 in
12:49 70.5 °F 48.7 °F 30.26 in NE 1.0 mph 11.0 mph 46% 0.00 in
12:54 71.1 °F 47.5 °F 30.26 in NNE 4.0 mph 9.0 mph 43% 0.00 in
12:59 71.1 °F 46.2 °F 30.26 in East 2.0 mph 11.0 mph 41% 0.00 in
13:04 71.1 °F 46.9 °F 30.26 in Calm   11.0 mph 42% 0.00 in
13:09 71.3 °F 47.7 °F 30.26 in Calm   8.0 mph 43% 0.00 in
13:14 71.3 °F 46.4 °F 30.26 in NE 3.0 mph 8.0 mph 41% 0.00 in
13:19 71.3 °F 47.0 °F 30.26 in Calm   8.0 mph 42% 0.00 in
13:24 71.5 °F 46.6 °F 30.26 in NNE 1.0 mph 7.0 mph 41% 0.00 in
13:29 71.6 °F 47.9 °F 30.26 in NNE 1.0 mph 7.0 mph 43% 0.00 in
13:34 71.7 °F 47.4 °F 30.25 in NNE 2.0 mph 7.0 mph 42% 0.00 in
13:39 71.7 °F 46.8 °F 30.25 in Calm   7.0 mph 41% 0.00 in
13:44 71.8 °F 47.5 °F 30.25 in NE 2.0 mph 6.0 mph 42% 0.00 in
13:49 71.7 °F 46.8 °F 30.25 in ENE 2.0 mph 9.0 mph 41% 0.00 in
13:54 71.8 °F 46.2 °F 30.25 in Calm   10.0 mph 40% 0.00 in
13:59 71.6 °F 44.7 °F 30.25 in ENE 1.0 mph 10.0 mph 38% 0.00 in
14:04 71.3 °F 45.8 °F 30.24 in Calm   7.0 mph 40% 0.00 in
14:09 71.6 °F 46.0 °F 30.25 in NE 5.0 mph 11.0 mph 40% 0.00 in
14:14 71.7 °F 48.0 °F 30.25 in North 1.0 mph 11.0 mph 43% 0.00 in
14:19 72.2 °F 47.2 °F 30.25 in NE 2.0 mph 10.0 mph 41% 0.00 in
14:24 72.3 °F 46.0 °F 30.25 in NE 1.0 mph 8.0 mph 39% 0.00 in
14:29 72.3 °F 46.0 °F 30.25 in NE 4.0 mph 11.0 mph 39% 0.00 in
14:34 72.4 °F 48.7 °F 30.25 in Calm   11.0 mph 43% 0.00 in
14:39 72.9 °F 47.8 °F 30.25 in Calm   8.0 mph 41% 0.00 in
14:44 73.1 °F 49.3 °F 30.24 in Calm   4.0 mph 43% 0.00 in
14:49 73.4 °F 47.6 °F 30.24 in Calm   4.0 mph 40% 0.00 in
14:54 73.5 °F 49.0 °F 30.24 in Calm   4.0 mph 42% 0.00 in
14:59 73.9 °F 48.7 °F 30.24 in Calm   5.0 mph 41% 0.00 in
15:04 73.7 °F 52.8 °F 30.24 in Calm   7.0 mph 48% 0.00 in
15:09 73.8 °F 49.9 °F 30.24 in Calm   7.0 mph 43% 0.00 in
15:14 73.9 °F 50.0 °F 30.23 in Calm   5.0 mph 43% 0.00 in
15:19 73.9 °F 46.7 °F 30.23 in Calm   6.0 mph 38% 0.00 in
15:24 73.7 °F 47.9 °F 30.24 in NE 1.0 mph 8.0 mph 40% 0.00 in
15:29 73.6 °F 48.5 °F 30.23 in Calm   9.0 mph 41% 0.00 in
15:34 73.3 °F 47.5 °F 30.23 in NE 1.0 mph 9.0 mph 40% 0.00 in
15:39 72.8 °F 45.7 °F 30.23 in North 2.0 mph 7.0 mph 38% 0.00 in
15:44 72.8 °F 47.8 °F 30.23 in Calm   7.0 mph 41% 0.00 in
15:49 73.2 °F 48.1 °F 30.23 in Calm   4.0 mph 41% 0.00 in
15:54 73.6 °F 53.3 °F 30.23 in Calm   4.0 mph 49% 0.00 in
15:59 74.2 °F 52.1 °F 30.23 in Calm   4.0 mph 46% 0.00 in
16:04 73.9 °F 46.7 °F 30.23 in North 2.0 mph 10.0 mph 38% 0.00 in
16:09 73.4 °F 48.9 °F 30.23 in Calm   10.0 mph 42% 0.00 in
16:14 73.7 °F 47.9 °F 30.22 in Calm   8.0 mph 40% 0.00 in
16:19 74.1 °F 52.0 °F 30.22 in Calm   6.0 mph 46% 0.00 in
16:24 74.4 °F 49.2 °F 30.22 in NW 1.0 mph 6.0 mph 41% 0.00 in
16:29 74.5 °F 47.9 °F 30.22 in North 2.0 mph 6.0 mph 39% 0.00 in
16:34 74.3 °F 53.9 °F 30.22 in NE 1.0 mph 8.0 mph 49% 0.00 in
16:39 74.4 °F 50.5 °F 30.22 in Calm   8.0 mph 43% 0.00 in
16:44 74.8 °F 51.5 °F 30.22 in Calm   5.0 mph 44% 0.00 in
16:49 74.2 °F 47.0 °F 30.22 in Calm   5.0 mph 38% 0.00 in
16:54 73.7 °F 54.5 °F 30.22 in Calm   5.0 mph 51% 0.00 in
16:59 74.2 °F 50.3 °F 30.22 in Calm   3.0 mph 43% 0.00 in
17:04 74.3 °F 51.6 °F 30.22 in Calm   6.0 mph 45% 0.00 in
17:09 74.3 °F 52.2 °F 30.22 in Calm   6.0 mph 46% 0.00 in
17:14 74.2 °F 49.0 °F 30.23 in Calm   2.0 mph 41% 0.00 in
17:19 73.9 °F 49.4 °F 30.23 in Calm   6.0 mph 42% 0.00 in
17:24 73.9 °F 49.4 °F 30.23 in Calm   6.0 mph 42% 0.00 in
17:29 74.1 °F 53.7 °F 30.23 in Calm   4.0 mph 49% 0.00 in
17:34 74.1 °F 51.4 °F 30.23 in Calm   1.0 mph 45% 0.00 in
17:39 74.0 °F 51.9 °F 30.23 in Calm   1.0 mph 46% 0.00 in
17:44 74.0 °F 51.9 °F 30.24 in Calm   1.0 mph 46% 0.00 in
17:49 73.9 °F 50.6 °F 30.24 in Calm   3.0 mph 44% 0.00 in
17:54 73.9 °F 50.6 °F 30.24 in Calm   3.0 mph 44% 0.00 in
17:59 73.8 °F 49.3 °F 30.24 in NW 2.0 mph 7.0 mph 42% 0.00 in
18:09 73.5 °F 51.5 °F 30.25 in Calm   7.0 mph 46% 0.00 in
18:14 73.4 °F 49.6 °F 30.25 in NW 1.0 mph 6.0 mph 43% 0.00 in
18:19 72.7 °F 48.9 °F 30.25 in Calm   6.0 mph 43% 0.00 in
18:24 72.4 °F 48.7 °F 30.25 in NNW 1.0 mph 5.0 mph 43% 0.00 in
18:29 72.2 °F 47.9 °F 30.25 in Calm   4.0 mph 42% 0.00 in
18:34 72.4 °F 51.1 °F 30.25 in Calm   6.0 mph 47% 0.00 in
18:39 72.3 °F 52.1 °F 30.25 in Calm   6.0 mph 49% 0.00 in
18:44 72.1 °F 51.4 °F 30.25 in Calm   3.0 mph 48% 0.00 in
18:49 71.8 °F 51.1 °F 30.25 in Calm   3.0 mph 48% 0.00 in
18:54 71.3 °F 49.5 °F 30.25 in Calm   3.0 mph 46% 0.00 in
18:59 70.6 °F 50.0 °F 30.25 in NE 1.0 mph 7.0 mph 48% 0.00 in
19:04 70.2 °F 50.2 °F 30.25 in Calm   7.0 mph 49% 0.00 in
19:09 69.7 °F 49.2 °F 30.25 in Calm   3.0 mph 48% 0.00 in
19:14 69.4 °F 49.4 °F 30.26 in Calm   1.0 mph 49% 0.00 in
19:19 69.2 °F 51.4 °F 30.25 in Calm   3.0 mph 53% 0.00 in
19:24 69.0 °F 50.1 °F 30.25 in Calm   3.0 mph 51% 0.00 in
19:29 68.8 °F 50.0 °F 30.25 in Calm   1.0 mph 51% 0.00 in
19:34 68.7 °F 51.4 °F 30.25 in Calm     54% 0.00 in
19:39 68.5 °F 52.7 °F 30.25 in Calm   1.0 mph 57% 0.00 in
19:44 68.3 °F 53.0 °F 30.26 in Calm   1.0 mph 58% 0.00 in
19:49 67.8 °F 51.1 °F 30.26 in Calm   1.0 mph 55% 0.00 in
19:54 67.2 °F 51.0 °F 30.26 in Calm   1.0 mph 56% 0.00 in
19:59 66.9 °F 51.2 °F 30.26 in Calm     57% 0.00 in
20:04 66.1 °F 50.9 °F 30.26 in Calm   1.0 mph 58% 0.00 in
20:09 65.3 °F 50.2 °F 30.26 in Calm   1.0 mph 58% 0.00 in
20:14 64.7 °F 50.5 °F 30.26 in Calm     60% 0.00 in
20:19 63.9 °F 49.8 °F 30.26 in Calm     60% 0.00 in
20:24 62.7 °F 49.1 °F 30.26 in Calm   1.0 mph 61% 0.00 in
20:29 61.8 °F 49.1 °F 30.26 in Calm   1.0 mph 63% 0.00 in
20:34 61.1 °F 48.8 °F 30.26 in Calm     64% 0.00 in
20:39 60.2 °F 48.4 °F 30.26 in Calm     65% 0.00 in
20:44 59.1 °F 48.9 °F 30.26 in Calm     69% 0.00 in
20:49 58.1 °F 48.8 °F 30.27 in Calm     71% 0.00 in
20:54 57.0 °F 48.1 °F 30.27 in Calm     72% 0.00 in
21:04 55.7 °F 47.9 °F 30.27 in Calm     75% 0.00 in
21:09 55.1 °F 47.3 °F 30.27 in Calm     75% 0.00 in
21:14 54.6 °F 46.8 °F 30.27 in Calm     75% 0.00 in
21:24 53.7 °F 46.7 °F 30.27 in Calm     77% 0.00 in
21:29 53.5 °F 46.5 °F 30.27 in Calm     77% 0.00 in
21:34 53.4 °F 46.7 °F 30.27 in Calm   1.0 mph 78% 0.00 in
21:39 53.3 °F 47.0 °F 30.27 in Calm   1.0 mph 79% 0.00 in
21:44 53.3 °F 47.0 °F 30.27 in Calm     79% 0.00 in
21:54 53.0 °F 47.0 °F 30.27 in Calm     80% 0.00 in
21:59 52.8 °F 46.8 °F 30.27 in Calm     80% 0.00 in
22:09 52.8 °F 46.8 °F 30.27 in Calm     80% 0.00 in
22:14 52.9 °F 46.6 °F 30.26 in Calm     79% 0.00 in
22:19 53.0 °F 46.7 °F 30.26 in Calm     79% 0.00 in
22:24 52.8 °F 46.5 °F 30.26 in Calm     79% 0.00 in
22:29 52.7 °F 46.4 °F 30.26 in Calm     79% 0.00 in
22:34 52.6 °F 46.6 °F 30.26 in Calm     80% 0.00 in
22:44 52.2 °F 45.9 °F 30.26 in Calm     79% 0.00 in
22:49 52.1 °F 46.5 °F 30.26 in Calm     81% 0.00 in
22:54 52.2 °F 46.2 °F 30.27 in Calm     80% 0.00 in
22:59 52.3 °F 46.3 °F 30.27 in Calm     80% 0.00 in
23:04 52.5 °F 46.5 °F 30.26 in Calm     80% 0.00 in
23:09 52.7 °F 46.7 °F 30.26 in Calm     80% 0.00 in
23:14 52.8 °F 46.5 °F 30.26 in Calm     79% 0.00 in
23:19 52.4 °F 46.1 °F 30.26 in Calm     79% 0.00 in
23:24 52.1 °F 46.1 °F 30.26 in Calm     80% 0.00 in
23:29 51.7 °F 45.7 °F 30.26 in Calm     80% 0.00 in
23:34 51.2 °F 45.6 °F 30.27 in Calm     81% 0.00 in
23:39 50.7 °F 45.4 °F 30.27 in Calm     82% 0.00 in
23:44 50.3 °F 45.0 °F 30.27 in Calm     82% 0.00 in
23:49 50.3 °F 45.3 °F 30.27 in Calm     83% 0.00 in
23:54 50.1 °F 45.1 °F 30.27 in Calm     83% 0.00 in
23:59 49.8 °F 44.8 °F 30.27 in Calm     83% 0.00 in
Westford Weather
Compliments of Weather Underground

 
 
Current Radar Loop:

Copyright © WestfordWeather.net 2007-2014. All rights reserved.